sensor_id;sensor_type;location;lat;lon;timestamp;P1;durP1;ratioP1;P2;durP2;ratioP2
74926;SDS011;63488;48.092;-1.640;2022-11-30T00:00:30;14.00;;;9.52;;
74926;SDS011;63488;48.092;-1.640;2022-11-30T00:02:56;11.57;;;9.38;;
74926;SDS011;63488;48.092;-1.640;2022-11-30T00:05:21;11.23;;;9.00;;
74926;SDS011;63488;48.092;-1.640;2022-11-30T00:07:47;13.55;;;10.32;;
74926;SDS011;63488;48.092;-1.640;2022-11-30T00:10:12;14.00;;;10.10;;
74926;SDS011;63488;48.092;-1.640;2022-11-30T00:12:38;14.60;;;10.60;;
74926;SDS011;63488;48.092;-1.640;2022-11-30T00:15:07;13.43;;;10.32;;
74926;SDS011;63488;48.092;-1.640;2022-11-30T00:17:33;12.40;;;9.68;;
74926;SDS011;63488;48.092;-1.640;2022-11-30T00:19:58;13.07;;;10.18;;
74926;SDS011;63488;48.092;-1.640;2022-11-30T00:22:23;16.17;;;11.30;;
74926;SDS011;63488;48.092;-1.640;2022-11-30T00:24:49;14.60;;;10.80;;
74926;SDS011;63488;48.092;-1.640;2022-11-30T00:27:14;15.00;;;10.82;;
74926;SDS011;63488;48.092;-1.640;2022-11-30T00:29:39;13.80;;;10.63;;
74926;SDS011;63488;48.092;-1.640;2022-11-30T00:32:05;15.60;;;10.98;;
74926;SDS011;63488;48.092;-1.640;2022-11-30T00:34:30;16.13;;;11.00;;
74926;SDS011;63488;48.092;-1.640;2022-11-30T00:36:55;16.65;;;10.95;;
74926;SDS011;63488;48.092;-1.640;2022-11-30T00:39:21;15.20;;;11.02;;
74926;SDS011;63488;48.092;-1.640;2022-11-30T00:41:46;13.23;;;10.38;;
74926;SDS011;63488;48.092;-1.640;2022-11-30T00:44:12;16.60;;;10.70;;
74926;SDS011;63488;48.092;-1.640;2022-11-30T00:46:38;14.43;;;10.88;;
74926;SDS011;63488;48.092;-1.640;2022-11-30T00:49:03;14.63;;;10.70;;
74926;SDS011;63488;48.092;-1.640;2022-11-30T00:51:28;16.13;;;11.52;;
74926;SDS011;63488;48.092;-1.640;2022-11-30T00:53:54;13.15;;;10.15;;
74926;SDS011;63488;48.092;-1.640;2022-11-30T00:56:19;14.05;;;10.40;;
74926;SDS011;63488;48.092;-1.640;2022-11-30T00:58:45;14.95;;;10.73;;
74926;SDS011;63488;48.092;-1.640;2022-11-30T01:01:10;16.63;;;11.32;;
74926;SDS011;63488;48.092;-1.640;2022-11-30T01:03:36;17.27;;;11.40;;
74926;SDS011;63488;48.092;-1.640;2022-11-30T01:06:02;19.45;;;11.55;;
74926;SDS011;63488;48.092;-1.640;2022-11-30T01:08:28;18.23;;;12.25;;
74926;SDS011;63488;48.092;-1.640;2022-11-30T01:10:53;16.92;;;11.85;;
74926;SDS011;63488;48.092;-1.640;2022-11-30T01:13:21;17.67;;;12.95;;
74926;SDS011;63488;48.092;-1.640;2022-11-30T01:15:47;16.88;;;12.20;;
74926;SDS011;63488;48.092;-1.640;2022-11-30T01:18:12;18.10;;;12.43;;
74926;SDS011;63488;48.092;-1.640;2022-11-30T01:20:41;21.30;;;13.18;;
74926;SDS011;63488;48.092;-1.640;2022-11-30T01:23:06;20.73;;;13.50;;
74926;SDS011;63488;48.092;-1.640;2022-11-30T01:25:32;18.73;;;13.20;;
74926;SDS011;63488;48.092;-1.640;2022-11-30T01:27:57;20.63;;;12.82;;
74926;SDS011;63488;48.092;-1.640;2022-11-30T01:30:23;20.50;;;13.50;;
74926;SDS011;63488;48.092;-1.640;2022-11-30T01:32:48;18.20;;;12.13;;
74926;SDS011;63488;48.092;-1.640;2022-11-30T01:35:14;20.35;;;12.80;;
74926;SDS011;63488;48.092;-1.640;2022-11-30T01:37:39;20.33;;;13.73;;
74926;SDS011;63488;48.092;-1.640;2022-11-30T01:40:05;20.63;;;13.68;;
74926;SDS011;63488;48.092;-1.640;2022-11-30T01:42:30;20.98;;;12.95;;
74926;SDS011;63488;48.092;-1.640;2022-11-30T01:44:57;20.02;;;12.90;;
74926;SDS011;63488;48.092;-1.640;2022-11-30T01:47:30;19.63;;;11.95;;
74926;SDS011;63488;48.092;-1.640;2022-11-30T01:50:20;17.20;;;12.07;;
74926;SDS011;63488;48.092;-1.640;2022-11-30T01:52:44;16.77;;;8.90;;
74926;SDS011;63488;48.092;-1.640;2022-11-30T01:55:21;14.20;;;8.45;;
74926;SDS011;63488;48.092;-1.640;2022-11-30T01:57:50;11.82;;;7.55;;
74926;SDS011;63488;48.092;-1.640;2022-11-30T02:00:16;11.90;;;7.70;;
74926;SDS011;63488;48.092;-1.640;2022-11-30T02:02:44;12.38;;;7.45;;
74926;SDS011;63488;48.092;-1.640;2022-11-30T02:05:11;12.43;;;7.63;;
74926;SDS011;63488;48.092;-1.640;2022-11-30T02:07:37;12.63;;;7.82;;
74926;SDS011;63488;48.092;-1.640;2022-11-30T02:10:03;13.27;;;7.63;;
74926;SDS011;63488;48.092;-1.640;2022-11-30T02:12:33;11.50;;;7.43;;
74926;SDS011;63488;48.092;-1.640;2022-11-30T02:15:04;11.20;;;7.28;;
74926;SDS011;63488;48.092;-1.640;2022-11-30T02:30:16;10.70;;;6.15;;
74926;SDS011;63488;48.092;-1.640;2022-11-30T02:32:46;11.45;;;6.60;;
74926;SDS011;63488;48.092;-1.640;2022-11-30T02:35:13;9.63;;;5.78;;
74926;SDS011;63488;48.092;-1.640;2022-11-30T02:37:39;9.32;;;6.28;;
74926;SDS011;63488;48.092;-1.640;2022-11-30T02:40:09;10.13;;;5.97;;
74926;SDS011;63488;48.092;-1.640;2022-11-30T02:42:35;8.93;;;5.97;;
74926;SDS011;63488;48.092;-1.640;2022-11-30T02:45:00;9.88;;;6.32;;
74926;SDS011;63488;48.092;-1.640;2022-11-30T02:50:24;10.77;;;6.97;;
74926;SDS011;63488;48.092;-1.640;2022-11-30T02:52:51;10.57;;;6.82;;
74926;SDS011;63488;48.092;-1.640;2022-11-30T02:55:17;10.48;;;6.22;;
74926;SDS011;63488;48.092;-1.640;2022-11-30T02:57:43;9.30;;;6.20;;
74926;SDS011;63488;48.092;-1.640;2022-11-30T03:00:08;10.88;;;6.50;;
74926;SDS011;63488;48.092;-1.640;2022-11-30T03:02:35;11.70;;;6.25;;
74926;SDS011;63488;48.092;-1.640;2022-11-30T03:05:00;10.18;;;6.43;;
74926;SDS011;63488;48.092;-1.640;2022-11-30T03:07:25;10.60;;;6.10;;
74926;SDS011;63488;48.092;-1.640;2022-11-30T03:09:51;11.63;;;6.15;;
74926;SDS011;63488;48.092;-1.640;2022-11-30T03:12:16;11.32;;;6.43;;
74926;SDS011;63488;48.092;-1.640;2022-11-30T03:14:42;10.95;;;6.13;;
74926;SDS011;63488;48.092;-1.640;2022-11-30T03:17:07;10.32;;;6.28;;
74926;SDS011;63488;48.092;-1.640;2022-11-30T03:19:32;9.20;;;6.03;;
74926;SDS011;63488;48.092;-1.640;2022-11-30T03:21:58;8.57;;;5.65;;
74926;SDS011;63488;48.092;-1.640;2022-11-30T03:24:23;8.25;;;5.18;;
74926;SDS011;63488;48.092;-1.640;2022-11-30T03:26:49;10.48;;;6.53;;
74926;SDS011;63488;48.092;-1.640;2022-11-30T03:29:14;8.65;;;5.45;;
74926;SDS011;63488;48.092;-1.640;2022-11-30T03:31:39;7.82;;;5.68;;
74926;SDS011;63488;48.092;-1.640;2022-11-30T03:34:05;7.18;;;5.45;;
74926;SDS011;63488;48.092;-1.640;2022-11-30T03:36:30;7.93;;;5.50;;
74926;SDS011;63488;48.092;-1.640;2022-11-30T03:38:55;8.18;;;5.53;;
74926;SDS011;63488;48.092;-1.640;2022-11-30T03:41:21;11.32;;;5.60;;
74926;SDS011;63488;48.092;-1.640;2022-11-30T03:43:46;9.68;;;5.55;;
74926;SDS011;63488;48.092;-1.640;2022-11-30T03:46:12;9.05;;;5.60;;
74926;SDS011;63488;48.092;-1.640;2022-11-30T03:48:38;8.25;;;5.55;;
74926;SDS011;63488;48.092;-1.640;2022-11-30T03:51:05;7.50;;;5.20;;
74926;SDS011;63488;48.092;-1.640;2022-11-30T03:53:31;9.85;;;5.50;;
74926;SDS011;63488;48.092;-1.640;2022-11-30T03:55:57;8.05;;;5.47;;
74926;SDS011;63488;48.092;-1.640;2022-11-30T03:58:23;8.35;;;5.53;;
74926;SDS011;63488;48.092;-1.640;2022-11-30T04:00:49;7.38;;;5.65;;
74926;SDS011;63488;48.092;-1.640;2022-11-30T04:03:14;7.55;;;5.28;;
74926;SDS011;63488;48.092;-1.640;2022-11-30T04:05:40;8.40;;;5.60;;
74926;SDS011;63488;48.092;-1.640;2022-11-30T04:08:05;9.15;;;6.15;;
74926;SDS011;63488;48.092;-1.640;2022-11-30T04:10:31;8.80;;;5.70;;
74926;SDS011;63488;48.092;-1.640;2022-11-30T04:12:56;8.15;;;5.18;;
74926;SDS011;63488;48.092;-1.640;2022-11-30T04:15:22;8.25;;;5.95;;
74926;SDS011;63488;48.092;-1.640;2022-11-30T04:17:47;9.13;;;6.15;;
74926;SDS011;63488;48.092;-1.640;2022-11-30T04:20:12;8.25;;;5.78;;
74926;SDS011;63488;48.092;-1.640;2022-11-30T04:22:38;8.63;;;5.60;;
74926;SDS011;63488;48.092;-1.640;2022-11-30T04:25:03;8.40;;;5.60;;
74926;SDS011;63488;48.092;-1.640;2022-11-30T04:27:29;9.52;;;5.88;;
74926;SDS011;63488;48.092;-1.640;2022-11-30T04:29:54;7.72;;;5.07;;
74926;SDS011;63488;48.092;-1.640;2022-11-30T04:32:19;7.68;;;5.38;;
74926;SDS011;63488;48.092;-1.640;2022-11-30T04:34:45;10.73;;;5.50;;
74926;SDS011;63488;48.092;-1.640;2022-11-30T04:37:10;8.95;;;5.65;;
74926;SDS011;63488;48.092;-1.640;2022-11-30T04:39:35;7.95;;;5.57;;
74926;SDS011;63488;48.092;-1.640;2022-11-30T04:42:01;9.18;;;5.63;;
74926;SDS011;63488;48.092;-1.640;2022-11-30T04:44:26;8.45;;;5.68;;
74926;SDS011;63488;48.092;-1.640;2022-11-30T04:46:51;8.68;;;5.70;;
74926;SDS011;63488;48.092;-1.640;2022-11-30T04:49:17;8.45;;;5.38;;
74926;SDS011;63488;48.092;-1.640;2022-11-30T04:51:42;7.82;;;4.93;;
74926;SDS011;63488;48.092;-1.640;2022-11-30T04:54:07;8.95;;;5.40;;
74926;SDS011;63488;48.092;-1.640;2022-11-30T04:56:33;9.18;;;5.22;;
74926;SDS011;63488;48.092;-1.640;2022-11-30T04:58:59;8.10;;;5.68;;
74926;SDS011;63488;48.092;-1.640;2022-11-30T05:01:25;8.27;;;5.45;;
74926;SDS011;63488;48.092;-1.640;2022-11-30T05:03:50;8.45;;;5.40;;
74926;SDS011;63488;48.092;-1.640;2022-11-30T05:06:16;8.38;;;5.30;;
74926;SDS011;63488;48.092;-1.640;2022-11-30T05:08:41;8.88;;;5.30;;
74926;SDS011;63488;48.092;-1.640;2022-11-30T05:11:06;9.82;;;5.70;;
74926;SDS011;63488;48.092;-1.640;2022-11-30T05:13:32;9.95;;;6.05;;
74926;SDS011;63488;48.092;-1.640;2022-11-30T05:15:57;9.48;;;6.05;;
74926;SDS011;63488;48.092;-1.640;2022-11-30T05:18:22;9.82;;;5.90;;
74926;SDS011;63488;48.092;-1.640;2022-11-30T05:20:48;8.95;;;6.32;;
74926;SDS011;63488;48.092;-1.640;2022-11-30T05:23:14;9.75;;;6.47;;
74926;SDS011;63488;48.092;-1.640;2022-11-30T05:25:40;10.35;;;6.63;;
74926;SDS011;63488;48.092;-1.640;2022-11-30T05:28:06;9.20;;;6.18;;
74926;SDS011;63488;48.092;-1.640;2022-11-30T05:30:31;10.65;;;6.22;;
74926;SDS011;63488;48.092;-1.640;2022-11-30T05:32:56;8.65;;;5.90;;
74926;SDS011;63488;48.092;-1.640;2022-11-30T05:35:22;8.43;;;5.45;;
74926;SDS011;63488;48.092;-1.640;2022-11-30T05:37:47;7.78;;;5.68;;
74926;SDS011;63488;48.092;-1.640;2022-11-30T05:40:12;8.13;;;5.32;;
74926;SDS011;63488;48.092;-1.640;2022-11-30T05:42:38;9.50;;;5.88;;
74926;SDS011;63488;48.092;-1.640;2022-11-30T05:45:03;8.32;;;5.97;;
74926;SDS011;63488;48.092;-1.640;2022-11-30T05:47:29;9.27;;;6.10;;
74926;SDS011;63488;48.092;-1.640;2022-11-30T05:49:54;10.35;;;6.30;;
74926;SDS011;63488;48.092;-1.640;2022-11-30T05:52:19;9.25;;;5.80;;
74926;SDS011;63488;48.092;-1.640;2022-11-30T05:54:45;9.73;;;6.03;;
74926;SDS011;63488;48.092;-1.640;2022-11-30T05:57:10;8.95;;;5.53;;
74926;SDS011;63488;48.092;-1.640;2022-11-30T05:59:35;7.80;;;5.43;;
74926;SDS011;63488;48.092;-1.640;2022-11-30T06:02:01;6.95;;;4.95;;
74926;SDS011;63488;48.092;-1.640;2022-11-30T06:04:26;7.30;;;4.82;;
74926;SDS011;63488;48.092;-1.640;2022-11-30T06:06:51;8.02;;;4.68;;
74926;SDS011;63488;48.092;-1.640;2022-11-30T06:09:19;7.22;;;4.72;;
74926;SDS011;63488;48.092;-1.640;2022-11-30T06:11:45;6.97;;;4.82;;
74926;SDS011;63488;48.092;-1.640;2022-11-30T06:14:10;8.32;;;4.95;;
74926;SDS011;63488;48.092;-1.640;2022-11-30T06:16:37;7.15;;;4.82;;
74926;SDS011;63488;48.092;-1.640;2022-11-30T06:19:02;6.82;;;5.10;;
74926;SDS011;63488;48.092;-1.640;2022-11-30T06:21:27;8.38;;;5.13;;
74926;SDS011;63488;48.092;-1.640;2022-11-30T06:23:53;5.93;;;4.40;;
74926;SDS011;63488;48.092;-1.640;2022-11-30T06:26:18;7.35;;;5.05;;
74926;SDS011;63488;48.092;-1.640;2022-11-30T06:28:43;7.35;;;5.30;;
74926;SDS011;63488;48.092;-1.640;2022-11-30T06:31:09;6.97;;;4.47;;
74926;SDS011;63488;48.092;-1.640;2022-11-30T06:33:35;7.88;;;4.88;;
74926;SDS011;63488;48.092;-1.640;2022-11-30T06:36:01;9.00;;;4.97;;
74926;SDS011;63488;48.092;-1.640;2022-11-30T06:38:26;7.20;;;5.35;;
74926;SDS011;63488;48.092;-1.640;2022-11-30T06:40:52;7.38;;;5.03;;
74926;SDS011;63488;48.092;-1.640;2022-11-30T06:43:17;7.47;;;5.18;;
74926;SDS011;63488;48.092;-1.640;2022-11-30T06:45:43;8.43;;;5.18;;
74926;SDS011;63488;48.092;-1.640;2022-11-30T06:48:09;6.95;;;4.72;;
74926;SDS011;63488;48.092;-1.640;2022-11-30T06:50:34;9.68;;;4.70;;
74926;SDS011;63488;48.092;-1.640;2022-11-30T06:52:59;9.18;;;5.28;;
74926;SDS011;63488;48.092;-1.640;2022-11-30T06:55:25;8.50;;;5.28;;
74926;SDS011;63488;48.092;-1.640;2022-11-30T06:57:50;8.88;;;5.80;;
74926;SDS011;63488;48.092;-1.640;2022-11-30T07:00:16;10.38;;;5.28;;
74926;SDS011;63488;48.092;-1.640;2022-11-30T07:02:41;6.63;;;5.13;;
74926;SDS011;63488;48.092;-1.640;2022-11-30T07:05:06;8.27;;;5.13;;
74926;SDS011;63488;48.092;-1.640;2022-11-30T07:07:32;9.48;;;5.35;;
74926;SDS011;63488;48.092;-1.640;2022-11-30T07:09:57;7.75;;;5.30;;
74926;SDS011;63488;48.092;-1.640;2022-11-30T07:12:23;7.10;;;5.40;;
74926;SDS011;63488;48.092;-1.640;2022-11-30T07:14:49;11.32;;;5.78;;
74926;SDS011;63488;48.092;-1.640;2022-11-30T07:17:19;7.82;;;5.07;;
74926;SDS011;63488;48.092;-1.640;2022-11-30T07:19:44;8.52;;;5.35;;
74926;SDS011;63488;48.092;-1.640;2022-11-30T07:22:11;10.20;;;5.22;;
74926;SDS011;63488;48.092;-1.640;2022-11-30T07:24:36;8.48;;;5.40;;
74926;SDS011;63488;48.092;-1.640;2022-11-30T07:27:20;10.77;;;5.75;;
74926;SDS011;63488;48.092;-1.640;2022-11-30T07:29:46;7.93;;;5.20;;
74926;SDS011;63488;48.092;-1.640;2022-11-30T07:32:13;9.27;;;5.18;;
74926;SDS011;63488;48.092;-1.640;2022-11-30T07:34:38;12.55;;;5.40;;
74926;SDS011;63488;48.092;-1.640;2022-11-30T07:37:03;8.73;;;5.07;;
74926;SDS011;63488;48.092;-1.640;2022-11-30T07:39:29;9.63;;;5.10;;
74926;SDS011;63488;48.092;-1.640;2022-11-30T07:41:54;7.53;;;5.45;;
74926;SDS011;63488;48.092;-1.640;2022-11-30T07:44:19;9.20;;;5.45;;
74926;SDS011;63488;48.092;-1.640;2022-11-30T07:46:45;8.43;;;5.15;;
74926;SDS011;63488;48.092;-1.640;2022-11-30T07:49:10;6.72;;;5.25;;
74926;SDS011;63488;48.092;-1.640;2022-11-30T07:51:36;9.90;;;5.53;;
74926;SDS011;63488;48.092;-1.640;2022-11-30T07:54:01;6.78;;;5.03;;
74926;SDS011;63488;48.092;-1.640;2022-11-30T07:56:27;8.00;;;5.07;;
74926;SDS011;63488;48.092;-1.640;2022-11-30T07:58:54;7.32;;;5.20;;
74926;SDS011;63488;48.092;-1.640;2022-11-30T08:01:21;9.65;;;4.90;;
74926;SDS011;63488;48.092;-1.640;2022-11-30T08:03:47;7.13;;;5.10;;
74926;SDS011;63488;48.092;-1.640;2022-11-30T08:06:13;8.10;;;5.20;;
74926;SDS011;63488;48.092;-1.640;2022-11-30T08:08:40;13.18;;;4.55;;
74926;SDS011;63488;48.092;-1.640;2022-11-30T08:11:06;9.00;;;5.40;;
74926;SDS011;63488;48.092;-1.640;2022-11-30T08:13:32;7.88;;;5.10;;
74926;SDS011;63488;48.092;-1.640;2022-11-30T08:16:04;8.70;;;5.10;;
74926;SDS011;63488;48.092;-1.640;2022-11-30T08:18:29;8.57;;;4.68;;
74926;SDS011;63488;48.092;-1.640;2022-11-30T08:20:55;8.75;;;4.75;;
74926;SDS011;63488;48.092;-1.640;2022-11-30T08:23:21;6.47;;;4.80;;
74926;SDS011;63488;48.092;-1.640;2022-11-30T08:25:46;7.65;;;4.53;;
74926;SDS011;63488;48.092;-1.640;2022-11-30T08:28:11;8.80;;;5.30;;
74926;SDS011;63488;48.092;-1.640;2022-11-30T08:30:37;10.20;;;5.50;;
74926;SDS011;63488;48.092;-1.640;2022-11-30T08:33:02;7.80;;;4.80;;
74926;SDS011;63488;48.092;-1.640;2022-11-30T08:35:27;7.82;;;5.18;;
74926;SDS011;63488;48.092;-1.640;2022-11-30T08:37:53;8.07;;;4.82;;
74926;SDS011;63488;48.092;-1.640;2022-11-30T08:40:18;5.82;;;4.70;;
74926;SDS011;63488;48.092;-1.640;2022-11-30T08:42:43;7.72;;;4.93;;
74926;SDS011;63488;48.092;-1.640;2022-11-30T08:45:09;8.25;;;5.18;;
74926;SDS011;63488;48.092;-1.640;2022-11-30T08:47:34;6.30;;;4.97;;
74926;SDS011;63488;48.092;-1.640;2022-11-30T08:50:00;6.60;;;4.95;;
74926;SDS011;63488;48.092;-1.640;2022-11-30T08:52:25;8.35;;;4.43;;
74926;SDS011;63488;48.092;-1.640;2022-11-30T08:54:51;7.00;;;5.07;;
74926;SDS011;63488;48.092;-1.640;2022-11-30T08:57:17;11.13;;;7.38;;
74926;SDS011;63488;48.092;-1.640;2022-11-30T08:59:43;8.88;;;6.53;;
74926;SDS011;63488;48.092;-1.640;2022-11-30T09:02:18;11.35;;;6.95;;
74926;SDS011;63488;48.092;-1.640;2022-11-30T09:04:43;7.85;;;5.15;;
74926;SDS011;63488;48.092;-1.640;2022-11-30T09:07:09;11.38;;;5.40;;
74926;SDS011;63488;48.092;-1.640;2022-11-30T09:09:35;6.82;;;4.68;;
74926;SDS011;63488;48.092;-1.640;2022-11-30T09:12:00;7.47;;;4.60;;
74926;SDS011;63488;48.092;-1.640;2022-11-30T09:14:26;7.93;;;4.43;;
74926;SDS011;63488;48.092;-1.640;2022-11-30T09:16:52;6.43;;;4.90;;
74926;SDS011;63488;48.092;-1.640;2022-11-30T09:19:17;6.22;;;4.70;;
74926;SDS011;63488;48.092;-1.640;2022-11-30T09:21:42;6.65;;;4.55;;
74926;SDS011;63488;48.092;-1.640;2022-11-30T09:24:08;9.02;;;5.10;;
74926;SDS011;63488;48.092;-1.640;2022-11-30T09:26:34;6.57;;;4.78;;
74926;SDS011;63488;48.092;-1.640;2022-11-30T09:28:59;7.82;;;4.55;;
74926;SDS011;63488;48.092;-1.640;2022-11-30T09:31:25;8.13;;;4.63;;
74926;SDS011;63488;48.092;-1.640;2022-11-30T09:33:50;8.05;;;5.03;;
74926;SDS011;63488;48.092;-1.640;2022-11-30T09:36:17;6.55;;;4.30;;
74926;SDS011;63488;48.092;-1.640;2022-11-30T09:38:43;8.05;;;4.43;;
74926;SDS011;63488;48.092;-1.640;2022-11-30T09:46:24;7.15;;;4.63;;
74926;SDS011;63488;48.092;-1.640;2022-11-30T09:48:58;8.32;;;4.80;;
74926;SDS011;63488;48.092;-1.640;2022-11-30T09:51:27;8.48;;;5.18;;
74926;SDS011;63488;48.092;-1.640;2022-11-30T09:53:55;6.88;;;3.97;;
74926;SDS011;63488;48.092;-1.640;2022-11-30T09:58:49;6.72;;;4.65;;
74926;SDS011;63488;48.092;-1.640;2022-11-30T10:03:42;6.75;;;4.10;;
74926;SDS011;63488;48.092;-1.640;2022-11-30T10:06:08;6.78;;;4.55;;
74926;SDS011;63488;48.092;-1.640;2022-11-30T10:13:46;6.53;;;4.28;;
74926;SDS011;63488;48.092;-1.640;2022-11-30T10:21:24;7.30;;;3.80;;
74926;SDS011;63488;48.092;-1.640;2022-11-30T10:24:04;6.72;;;3.80;;
74926;SDS011;63488;48.092;-1.640;2022-11-30T10:26:35;5.97;;;3.75;;
74926;SDS011;63488;48.092;-1.640;2022-11-30T10:29:18;5.43;;;3.70;;
74926;SDS011;63488;48.092;-1.640;2022-11-30T10:31:45;5.20;;;3.50;;
74926;SDS011;63488;48.092;-1.640;2022-11-30T10:34:19;4.40;;;3.50;;
74926;SDS011;63488;48.092;-1.640;2022-11-30T10:36:48;7.03;;;3.17;;
74926;SDS011;63488;48.092;-1.640;2022-11-30T10:41:42;6.53;;;3.47;;
74926;SDS011;63488;48.092;-1.640;2022-11-30T10:44:19;4.85;;;3.08;;
74926;SDS011;63488;48.092;-1.640;2022-11-30T10:46:53;6.13;;;3.45;;
74926;SDS011;63488;48.092;-1.640;2022-11-30T10:49:20;6.65;;;3.45;;
74926;SDS011;63488;48.092;-1.640;2022-11-30T10:51:51;4.05;;;2.90;;
74926;SDS011;63488;48.092;-1.640;2022-11-30T10:54:20;4.47;;;3.03;;
74926;SDS011;63488;48.092;-1.640;2022-11-30T10:56:46;4.38;;;3.28;;
74926;SDS011;63488;48.092;-1.640;2022-11-30T10:59:25;7.28;;;3.50;;
74926;SDS011;63488;48.092;-1.640;2022-11-30T11:01:51;5.68;;;3.40;;
74926;SDS011;63488;48.092;-1.640;2022-11-30T11:04:18;5.90;;;3.33;;
74926;SDS011;63488;48.092;-1.640;2022-11-30T11:09:29;4.82;;;3.25;;
74926;SDS011;63488;48.092;-1.640;2022-11-30T11:11:57;4.38;;;2.72;;
74926;SDS011;63488;48.092;-1.640;2022-11-30T11:14:23;4.30;;;2.95;;
74926;SDS011;63488;48.092;-1.640;2022-11-30T11:17:03;7.22;;;3.30;;
74926;SDS011;63488;48.092;-1.640;2022-11-30T11:19:31;5.90;;;3.60;;
74926;SDS011;63488;48.092;-1.640;2022-11-30T11:21:58;4.28;;;2.72;;
74926;SDS011;63488;48.092;-1.640;2022-11-30T11:24:25;5.20;;;2.70;;
74926;SDS011;63488;48.092;-1.640;2022-11-30T11:26:51;4.13;;;2.85;;
74926;SDS011;63488;48.092;-1.640;2022-11-30T11:29:30;3.85;;;2.67;;
74926;SDS011;63488;48.092;-1.640;2022-11-30T11:34:40;3.70;;;2.55;;
74926;SDS011;63488;48.092;-1.640;2022-11-30T11:39:39;5.22;;;3.15;;
74926;SDS011;63488;48.092;-1.640;2022-11-30T11:42:05;5.22;;;3.20;;
74926;SDS011;63488;48.092;-1.640;2022-11-30T11:44:31;4.45;;;3.10;;
74926;SDS011;63488;48.092;-1.640;2022-11-30T11:47:01;5.60;;;3.67;;
74926;SDS011;63488;48.092;-1.640;2022-11-30T11:49:28;4.68;;;3.17;;
74926;SDS011;63488;48.092;-1.640;2022-11-30T11:52:05;4.68;;;3.50;;
74926;SDS011;63488;48.092;-1.640;2022-11-30T11:56:58;7.15;;;3.88;;
74926;SDS011;63488;48.092;-1.640;2022-11-30T12:02:06;6.90;;;4.20;;
74926;SDS011;63488;48.092;-1.640;2022-11-30T12:04:41;5.93;;;4.03;;
74926;SDS011;63488;48.092;-1.640;2022-11-30T12:07:11;5.88;;;4.10;;
74926;SDS011;63488;48.092;-1.640;2022-11-30T12:09:40;5.68;;;4.32;;
74926;SDS011;63488;48.092;-1.640;2022-11-30T12:12:11;5.80;;;4.55;;
74926;SDS011;63488;48.092;-1.640;2022-11-30T12:14:37;9.13;;;4.90;;
74926;SDS011;63488;48.092;-1.640;2022-11-30T12:17:18;6.78;;;4.88;;
74926;SDS011;63488;48.092;-1.640;2022-11-30T12:19:57;7.15;;;4.57;;
74926;SDS011;63488;48.092;-1.640;2022-11-30T12:24:59;8.25;;;5.15;;
74926;SDS011;63488;48.092;-1.640;2022-11-30T12:30:22;7.38;;;4.65;;
74926;SDS011;63488;48.092;-1.640;2022-11-30T12:38:14;7.78;;;5.68;;
74926;SDS011;63488;48.092;-1.640;2022-11-30T12:41:01;10.18;;;5.57;;
74926;SDS011;63488;48.092;-1.640;2022-11-30T12:46:28;7.03;;;5.25;;
74926;SDS011;63488;48.092;-1.640;2022-11-30T12:49:09;10.05;;;5.70;;
74926;SDS011;63488;48.092;-1.640;2022-11-30T12:51:36;7.90;;;5.18;;
74926;SDS011;63488;48.092;-1.640;2022-11-30T12:54:07;9.32;;;6.32;;
74926;SDS011;63488;48.092;-1.640;2022-11-30T12:56:43;10.13;;;6.43;;
74926;SDS011;63488;48.092;-1.640;2022-11-30T13:04:25;10.05;;;6.28;;
74926;SDS011;63488;48.092;-1.640;2022-11-30T13:07:04;8.30;;;5.10;;
74926;SDS011;63488;48.092;-1.640;2022-11-30T13:12:06;8.93;;;6.07;;
74926;SDS011;63488;48.092;-1.640;2022-11-30T13:14:34;9.32;;;5.53;;
74926;SDS011;63488;48.092;-1.640;2022-11-30T13:17:01;14.23;;;7.85;;
74926;SDS011;63488;48.092;-1.640;2022-11-30T13:19:31;12.85;;;5.90;;
74926;SDS011;63488;48.092;-1.640;2022-11-30T13:22:07;8.43;;;5.93;;
74926;SDS011;63488;48.092;-1.640;2022-11-30T13:24:36;10.15;;;5.82;;
74926;SDS011;63488;48.092;-1.640;2022-11-30T13:32:05;8.90;;;6.50;;
74926;SDS011;63488;48.092;-1.640;2022-11-30T13:34:31;8.05;;;6.07;;
74926;SDS011;63488;48.092;-1.640;2022-11-30T13:37:01;8.27;;;6.53;;
74926;SDS011;63488;48.092;-1.640;2022-11-30T13:39:28;9.50;;;6.28;;
74926;SDS011;63488;48.092;-1.640;2022-11-30T13:46:53;8.38;;;6.63;;
74926;SDS011;63488;48.092;-1.640;2022-11-30T13:49:28;10.00;;;6.32;;
74926;SDS011;63488;48.092;-1.640;2022-11-30T13:51:54;10.82;;;6.00;;
74926;SDS011;63488;48.092;-1.640;2022-11-30T13:59:48;9.90;;;6.40;;
74926;SDS011;63488;48.092;-1.640;2022-11-30T14:07:39;10.65;;;6.60;;
74926;SDS011;63488;48.092;-1.640;2022-11-30T14:10:27;8.85;;;6.30;;
74926;SDS011;63488;48.092;-1.640;2022-11-30T14:13:00;8.77;;;6.05;;
74926;SDS011;63488;48.092;-1.640;2022-11-30T14:18:19;9.57;;;6.72;;
74926;SDS011;63488;48.092;-1.640;2022-11-30T14:20:52;7.47;;;5.90;;
74926;SDS011;63488;48.092;-1.640;2022-11-30T14:23:24;11.68;;;6.22;;
74926;SDS011;63488;48.092;-1.640;2022-11-30T14:25:51;8.55;;;6.20;;
74926;SDS011;63488;48.092;-1.640;2022-11-30T14:31:13;8.32;;;5.95;;
74926;SDS011;63488;48.092;-1.640;2022-11-30T14:33:53;10.05;;;6.07;;
74926;SDS011;63488;48.092;-1.640;2022-11-30T14:36:19;10.38;;;6.38;;
74926;SDS011;63488;48.092;-1.640;2022-11-30T14:38:46;8.15;;;5.88;;
74926;SDS011;63488;48.092;-1.640;2022-11-30T14:41:45;8.35;;;5.60;;
74926;SDS011;63488;48.092;-1.640;2022-11-30T14:44:11;9.85;;;6.15;;
74926;SDS011;63488;48.092;-1.640;2022-11-30T14:46:37;9.98;;;6.32;;
74926;SDS011;63488;48.092;-1.640;2022-11-30T14:49:06;10.05;;;6.40;;
74926;SDS011;63488;48.092;-1.640;2022-11-30T14:51:36;8.55;;;6.38;;
74926;SDS011;63488;48.092;-1.640;2022-11-30T14:54:10;8.35;;;6.05;;
74926;SDS011;63488;48.092;-1.640;2022-11-30T15:01:43;10.18;;;6.68;;
74926;SDS011;63488;48.092;-1.640;2022-11-30T15:04:10;10.23;;;6.70;;
74926;SDS011;63488;48.092;-1.640;2022-11-30T15:06:37;10.00;;;6.35;;
74926;SDS011;63488;48.092;-1.640;2022-11-30T15:09:03;8.05;;;6.07;;
74926;SDS011;63488;48.092;-1.640;2022-11-30T15:11:29;9.93;;;6.28;;
74926;SDS011;63488;48.092;-1.640;2022-11-30T15:13:55;9.20;;;6.53;;
74926;SDS011;63488;48.092;-1.640;2022-11-30T15:18:50;9.70;;;6.25;;
74926;SDS011;63488;48.092;-1.640;2022-11-30T15:21:21;7.60;;;5.50;;
74926;SDS011;63488;48.092;-1.640;2022-11-30T15:23:48;9.15;;;6.13;;
74926;SDS011;63488;48.092;-1.640;2022-11-30T15:29:12;7.15;;;5.60;;
74926;SDS011;63488;48.092;-1.640;2022-11-30T15:31:42;7.55;;;5.45;;
74926;SDS011;63488;48.092;-1.640;2022-11-30T15:34:18;8.73;;;5.60;;
74926;SDS011;63488;48.092;-1.640;2022-11-30T15:36:44;10.07;;;5.85;;
74926;SDS011;63488;48.092;-1.640;2022-11-30T15:39:15;8.02;;;5.82;;
74926;SDS011;63488;48.092;-1.640;2022-11-30T15:41:42;8.80;;;6.03;;
74926;SDS011;63488;48.092;-1.640;2022-11-30T15:47:18;8.57;;;5.78;;
74926;SDS011;63488;48.092;-1.640;2022-11-30T15:49:51;8.70;;;5.35;;
74926;SDS011;63488;48.092;-1.640;2022-11-30T15:52:17;8.18;;;6.05;;
74926;SDS011;63488;48.092;-1.640;2022-11-30T15:57:09;10.07;;;6.25;;
74926;SDS011;63488;48.092;-1.640;2022-11-30T15:59:34;8.82;;;6.13;;
74926;SDS011;63488;48.092;-1.640;2022-11-30T16:02:00;9.98;;;6.05;;
74926;SDS011;63488;48.092;-1.640;2022-11-30T16:05:02;8.30;;;6.10;;
74926;SDS011;63488;48.092;-1.640;2022-11-30T16:07:17;7.95;;;6.05;;
74926;SDS011;63488;48.092;-1.640;2022-11-30T16:09:42;8.10;;;6.03;;
74926;SDS011;63488;48.092;-1.640;2022-11-30T16:12:08;8.45;;;6.30;;
74926;SDS011;63488;48.092;-1.640;2022-11-30T16:14:39;9.18;;;5.95;;
74926;SDS011;63488;48.092;-1.640;2022-11-30T16:17:05;9.73;;;6.40;;
74926;SDS011;63488;48.092;-1.640;2022-11-30T16:19:30;9.57;;;6.88;;
74926;SDS011;63488;48.092;-1.640;2022-11-30T16:21:56;8.98;;;6.03;;
74926;SDS011;63488;48.092;-1.640;2022-11-30T16:24:21;9.20;;;6.50;;